Time;durP1;ratioP1;P1;durP2;ratioP2;P2;SDS_P1;SDS_P2;PMS_P1;PMS_P2;Temp;Humidity;BMP_temperature;BMP_pressure;BME280_temperature;BME280_humidity;BME280_pressure;Samples;Min_cycle;Max_cycle;Signal;HPM_P1;HPM_P2
2022/02/19 00:02:19;;;;;;;23.05;4.40;;;6.00;99.90;;;;;;5113268;27;20478;-91
2022/02/19 00:04:44;;;;;;;20.05;4.38;;;6.00;99.90;;;;;;5095693;27;20062;-92
2022/02/19 00:07:12;;;;;;;19.77;4.35;;;5.90;99.90;;;;;;5118516;27;20050;-93
2022/02/19 00:09:39;;;;;;;16.75;2.78;;;5.90;99.90;;;;;;5109135;27;20047;-93
2022/02/19 00:12:07;;;;;;;16.38;3.92;;;5.80;99.90;;;;;;5113414;27;20401;-92
2022/02/19 00:14:36;;;;;;;19.50;4.82;;;5.70;99.90;;;;;;5116858;27;20043;-92
2022/02/19 00:17:11;;;;;;;24.42;5.53;;;5.80;99.90;;;;;;5085450;27;20050;-93
2022/02/19 00:19:52;;;;;;;31.63;5.53;;;5.60;99.90;;;;;;5093461;27;20108;-93
2022/02/19 00:22:18;;;;;;;19.08;5.03;;;5.50;99.90;;;;;;5106452;27;20043;-94
2022/02/19 00:24:50;;;;;;;35.75;7.38;;;6.10;99.90;;;;;;5109463;27;20129;-94
2022/02/19 00:27:21;;;;;;;35.35;9.05;;;5.50;99.90;;;;;;5110951;27;20046;-93
2022/02/19 00:30:04;;;;;;;26.83;5.72;;;5.20;99.90;;;;;;5125470;27;20043;-94
2022/02/19 00:32:37;;;;;;;28.70;6.10;;;5.00;99.90;;;;;;5107598;27;20042;-95
2022/02/19 00:35:09;;;;;;;19.25;4.20;;;5.00;99.90;;;;;;5111538;27;20046;-93
2022/02/19 00:37:37;;;;;;;19.55;4.95;;;4.90;99.90;;;;;;5117154;27;20043;-94
2022/02/19 00:40:08;;;;;;;21.63;4.65;;;5.00;99.90;;;;;;5135895;27;20038;-93
2022/02/19 00:42:34;;;;;;;16.15;4.00;;;5.00;99.90;;;;;;5099039;27;20126;-93
2022/02/19 00:45:00;;;;;;;19.45;3.65;;;5.20;99.90;;;;;;5097460;27;20046;-93
2022/02/19 00:47:25;;;;;;;28.40;5.43;;;5.10;99.90;;;;;;5106993;27;20035;-96
2022/02/19 00:49:51;;;;;;;20.67;4.40;;;5.20;99.90;;;;;;5102615;28;20052;-94
2022/02/19 00:52:18;;;;;;;28.88;6.78;;;5.10;99.90;;;;;;5101997;28;20048;-94
2022/02/19 00:54:44;;;;;;;25.17;5.90;;;5.00;99.90;;;;;;5096994;28;20070;-95
2022/02/19 00:57:12;;;;;;;26.98;6.07;;;5.00;99.90;;;;;;5103259;27;20038;-95
2022/02/19 00:59:38;;;;;;;24.85;6.63;;;4.60;99.90;;;;;;5103190;28;20118;-94
2022/02/19 01:02:04;;;;;;;27.05;5.78;;;4.60;99.90;;;;;;5106945;27;20238;-92
2022/02/19 01:04:33;;;;;;;14.75;3.15;;;4.70;99.90;;;;;;5097583;27;20188;-94
2022/02/19 01:06:59;;;;;;;25.27;6.22;;;4.60;99.90;;;;;;5115792;27;20122;-94
2022/02/19 01:09:26;;;;;;;18.00;4.05;;;4.60;99.90;;;;;;5098231;27;20092;-93
2022/02/19 01:11:55;;;;;;;17.15;4.32;;;4.70;99.90;;;;;;5095867;28;20043;-94
2022/02/19 01:14:21;;;;;;;19.42;4.15;;;4.70;99.90;;;;;;5097360;27;20062;-95
2022/02/19 01:16:56;;;;;;;18.02;3.58;;;4.60;99.90;;;;;;5095881;28;20036;-93
2022/02/19 01:19:22;;;;;;;17.38;4.07;;;4.60;99.90;;;;;;5079211;28;20039;-94
2022/02/19 01:21:52;;;;;;;23.85;6.03;;;4.60;99.90;;;;;;5085644;27;20150;-94
2022/02/19 01:24:22;;;;;;;20.15;3.88;;;4.60;99.90;;;;;;5114837;27;20043;-95
2022/02/19 01:26:59;;;;;;;21.20;4.40;;;5.10;99.90;;;;;;5086817;27;20138;-95
2022/02/19 01:29:28;;;;;;;15.23;3.97;;;4.80;99.90;;;;;;5115205;27;20047;-93
2022/02/19 01:31:56;;;;;;;19.83;3.78;;;4.90;99.90;;;;;;5106945;28;20043;-93
2022/02/19 01:34:26;;;;;;;18.35;3.85;;;5.00;99.90;;;;;;5115557;27;20043;-94
2022/02/19 01:36:53;;;;;;;14.15;2.05;;;5.00;99.90;;;;;;5115167;28;20130;-95
2022/02/19 01:39:20;;;;;;;22.40;3.28;;;5.00;99.90;;;;;;5115238;27;20478;-94
2022/02/19 01:41:57;;;;;;;29.05;5.85;;;5.00;99.90;;;;;;5115342;27;20043;-94
2022/02/19 01:45:01;;;;;;;32.30;6.10;;;5.00;99.90;;;;;;5115425;27;20039;-95
2022/02/19 01:47:31;;;;;;;43.33;7.35;;;5.10;99.90;;;;;;5080815;28;20059;-94
2022/02/19 01:49:57;;;;;;;45.15;8.23;;;4.90;99.90;;;;;;5108448;28;20399;-96
2022/02/19 01:53:08;;;;;;;23.50;3.70;;;5.10;99.90;;;;;;5106685;28;20058;-94
2022/02/19 01:55:39;;;;;;;21.42;4.30;;;4.70;99.90;;;;;;5111329;28;20144;-95
2022/02/19 01:58:09;;;;;;;25.98;5.78;;;4.40;99.90;;;;;;5121293;28;20103;-94
2022/02/19 02:00:37;;;;;;;17.02;2.78;;;4.50;99.90;;;;;;5129078;28;20058;-94
2022/02/19 02:03:15;;;;;;;21.00;3.40;;;4.30;99.90;;;;;;5107833;28;20498;-94
2022/02/19 02:05:56;;;;;;;9.98;1.85;;;4.20;99.90;;;;;;5115915;28;20047;-94
2022/02/19 02:08:22;;;;;;;11.55;2.60;;;4.50;99.90;;;;;;5102897;28;20115;-93
2022/02/19 02:11:32;;;;;;;8.00;1.35;;;4.40;99.90;;;;;;5110251;28;20100;-94
2022/02/19 02:14:10;;;;;;;21.08;2.28;;;4.40;99.90;;;;;;5113408;28;20081;-93
2022/02/19 02:16:43;;;;;;;6.88;1.23;;;4.90;99.90;;;;;;5103022;28;20042;-93
2022/02/19 02:19:16;;;;;;;4.47;1.05;;;4.50;99.90;;;;;;5112561;28;20050;-95
2022/02/19 02:21:43;;;;;;;16.02;2.97;;;4.40;99.90;;;;;;5118981;28;20107;-94
2022/02/19 02:24:16;;;;;;;21.58;4.13;;;4.40;99.90;;;;;;5077392;28;20083;-95
2022/02/19 02:26:45;;;;;;;9.75;1.67;;;4.40;99.90;;;;;;5093619;28;20134;-94
2022/02/19 02:29:19;;;;;;;19.50;2.28;;;4.40;99.90;;;;;;5107958;28;20474;-96
2022/02/19 02:31:46;;;;;;;14.40;3.38;;;4.40;99.90;;;;;;5116024;28;20087;-95
2022/02/19 02:34:19;;;;;;;8.68;1.63;;;4.40;99.90;;;;;;5120475;27;20044;-94
2022/02/19 02:36:47;;;;;;;13.68;1.85;;;4.50;99.90;;;;;;5097115;28;20082;-93
2022/02/19 02:39:36;;;;;;;13.23;2.90;;;4.40;99.90;;;;;;5093790;27;20042;-94
2022/02/19 02:42:07;;;;;;;7.50;1.63;;;4.40;99.90;;;;;;5114872;27;20089;-94
2022/02/19 02:44:58;;;;;;;6.35;1.17;;;4.40;99.90;;;;;;5117498;27;20043;-93
2022/02/19 02:47:32;;;;;;;12.43;2.78;;;4.40;99.90;;;;;;5108146;27;20483;-94
2022/02/19 02:49:58;;;;;;;7.47;1.48;;;4.40;99.90;;;;;;5117584;27;20055;-95
2022/02/19 02:52:24;;;;;;;2.17;0.60;;;4.40;99.90;;;;;;5118282;27;20126;-93
2022/02/19 02:54:52;;;;;;;4.90;0.98;;;4.40;99.90;;;;;;5116581;27;20450;-92
2022/02/19 02:57:18;;;;;;;5.65;0.88;;;4.40;99.90;;;;;;5105429;27;20054;-94
2022/02/19 02:59:45;;;;;;;8.65;1.15;;;4.40;99.90;;;;;;5103925;28;20040;-94
2022/02/19 03:02:11;;;;;;;5.00;0.75;;;4.30;99.90;;;;;;5129207;27;20475;-93
2022/02/19 03:04:37;;;;;;;4.78;0.75;;;4.30;99.90;;;;;;5092868;27;20103;-94
2022/02/19 03:07:07;;;;;;;3.22;0.73;;;4.20;99.90;;;;;;5113956;28;20128;-94
2022/02/19 03:09:36;;;;;;;1.30;0.70;;;4.10;99.90;;;;;;5101460;28;20085;-93
2022/02/19 03:12:02;;;;;;;2.05;0.47;;;4.20;99.90;;;;;;5097326;28;20101;-94
2022/02/19 03:14:33;;;;;;;4.38;0.93;;;4.10;99.90;;;;;;5130460;27;20128;-94
2022/02/19 03:17:03;;;;;;;1.65;0.50;;;4.10;99.90;;;;;;5106470;27;20052;-94
2022/02/19 03:19:31;;;;;;;2.10;0.50;;;4.10;99.90;;;;;;5111824;28;20058;-95
2022/02/19 03:21:58;;;;;;;4.07;0.47;;;4.20;99.90;;;;;;5107398;27;20807;-94
2022/02/19 03:24:31;;;;;;;5.10;1.25;;;4.20;99.90;;;;;;5117508;27;20043;-94
2022/02/19 03:27:02;;;;;;;5.15;1.00;;;4.10;99.90;;;;;;5116962;27;20043;-93
2022/02/19 03:29:41;;;;;;;5.05;1.05;;;4.70;99.90;;;;;;5099808;27;20039;-94
2022/02/19 03:32:16;;;;;;;5.80;1.40;;;4.20;99.90;;;;;;5134519;27;20047;-94
2022/02/19 03:34:43;;;;;;;9.45;2.00;;;4.40;99.90;;;;;;5116866;27;20035;-92
2022/02/19 03:37:09;;;;;;;5.28;0.88;;;4.60;99.90;;;;;;5107676;28;20051;-93
2022/02/19 03:39:36;;;;;;;5.78;1.60;;;4.50;99.90;;;;;;5112919;27;20047;-93
2022/02/19 03:42:06;;;;;;;4.95;0.60;;;4.40;99.90;;;;;;5118023;27;20069;-93
2022/02/19 03:44:32;;;;;;;5.03;1.35;;;4.30;99.90;;;;;;5109293;28;20039;-93
2022/02/19 03:46:58;;;;;;;11.23;1.48;;;4.30;99.90;;;;;;5065862;28;20600;-94
2022/02/19 03:49:30;;;;;;;7.43;1.42;;;4.50;99.90;;;;;;5110127;27;20054;-93
2022/02/19 03:51:56;;;;;;;2.08;0.43;;;4.80;99.90;;;;;;5116617;27;20051;-94
2022/02/19 03:54:33;;;;;;;11.95;1.90;;;4.40;99.90;;;;;;5107798;27;20417;-93
2022/02/19 03:57:08;;;;;;;19.17;3.08;;;4.50;99.90;;;;;;5116585;27;20245;-94
2022/02/19 03:59:39;;;;;;;;;;;4.50;99.90;;;;;;5102233;27;20462;-94
2022/02/19 04:02:10;;;;;;;16.15;2.67;;;4.40;99.90;;;;;;5133350;27;20018;-94
2022/02/19 04:04:43;;;;;;;20.02;3.60;;;4.40;99.90;;;;;;5117274;27;20436;-95
2022/02/19 04:07:16;;;;;;;7.55;1.17;;;4.60;99.90;;;;;;5095322;28;20039;-94
2022/02/19 04:09:42;;;;;;;10.20;1.52;;;4.50;99.90;;;;;;5107523;27;20057;-93
2022/02/19 04:12:12;;;;;;;8.45;1.70;;;4.50;99.90;;;;;;5099732;27;20487;-95
2022/02/19 04:14:40;;;;;;;6.97;1.10;;;4.60;99.90;;;;;;5085769;27;20664;-93
2022/02/19 04:17:10;;;;;;;14.18;3.20;;;4.60;99.90;;;;;;5117165;27;20031;-94
2022/02/19 04:19:41;;;;;;;4.07;0.75;;;4.60;99.90;;;;;;5095210;28;20483;-93
2022/02/19 04:22:27;;;;;;;12.55;2.67;;;4.70;99.90;;;;;;5107610;27;20524;-94
2022/02/19 04:25:14;;;;;;;13.30;2.40;;;4.70;99.90;;;;;;5096032;28;20055;-93
2022/02/19 04:28:09;;;;;;;8.55;1.98;;;4.60;99.90;;;;;;5127605;27;20796;-94
2022/02/19 04:30:40;;;;;;;;;;;4.60;99.90;;;;;;5112664;28;20254;-95
2022/02/19 04:33:21;;;;;;;16.05;2.13;;;4.60;99.90;;;;;;5079795;28;19920;-92
2022/02/19 04:35:50;;;;;;;12.45;2.55;;;4.60;99.90;;;;;;5108847;27;20490;-94
2022/02/19 04:38:23;;;;;;;12.45;2.15;;;4.50;99.90;;;;;;5133178;27;20058;-93
2022/02/19 04:40:51;;;;;;;;;;;4.60;99.90;;;;;;5099566;27;20042;-93
2022/02/19 04:43:29;;;;;;;7.43;1.83;;;4.50;99.90;;;;;;5095507;28;19927;-94
2022/02/19 04:45:55;;;;;;;15.13;1.33;;;4.50;99.90;;;;;;5095492;28;20097;-94
2022/02/19 04:48:24;;;;;;;10.18;2.40;;;4.50;99.90;;;;;;5113753;27;20505;-93
2022/02/19 04:50:59;;;;;;;15.55;2.67;;;4.50;99.90;;;;;;5130671;27;20100;-93
2022/02/19 04:53:30;;;;;;;7.47;1.98;;;4.50;99.90;;;;;;5098647;27;20051;-94
2022/02/19 04:55:59;;;;;;;9.05;1.80;;;4.40;99.90;;;;;;5132679;27;20046;-94
2022/02/19 04:58:29;;;;;;;13.52;2.47;;;4.50;99.90;;;;;;5115579;27;20089;-95
2022/02/19 05:01:10;;;;;;;11.25;2.45;;;4.50;99.90;;;;;;5114395;27;20040;-93
2022/02/19 05:03:38;;;;;;;5.78;1.05;;;4.60;99.90;;;;;;5092939;28;20047;-93
2022/02/19 05:06:06;;;;;;;1.17;0.50;;;4.60;99.90;;;;;;5068334;28;20242;-92
2022/02/19 05:08:39;;;;;;;8.80;1.77;;;4.60;99.90;;;;;;5094604;27;20092;-93
2022/02/19 05:11:09;;;;;;;11.43;1.50;;;4.50;99.90;;;;;;5117278;27;20095;-95
2022/02/19 05:13:35;;;;;;;13.75;2.28;;;4.60;99.90;;;;;;5098581;27;20118;-93
2022/02/19 05:16:01;;;;;;;13.95;2.20;;;4.50;99.90;;;;;;5098254;27;20081;-93
2022/02/19 05:18:30;;;;;;;16.42;2.10;;;4.60;99.90;;;;;;5115099;27;20490;-93
2022/02/19 05:21:01;;;;;;;11.50;1.48;;;4.50;99.90;;;;;;5111367;27;20057;-93
2022/02/19 05:23:35;;;;;;;13.95;3.00;;;4.70;99.90;;;;;;5115498;27;20035;-95
2022/02/19 05:26:01;;;;;;;1.10;0.73;;;4.50;99.90;;;;;;5114888;27;20043;-91
2022/02/19 05:28:27;;;;;;;11.48;2.28;;;4.50;99.90;;;;;;5107081;28;20035;-93
2022/02/19 05:31:11;;;;;;;8.40;1.85;;;4.40;99.90;;;;;;5110429;27;20039;-93
2022/02/19 05:34:06;;;;;;;19.20;2.92;;;4.30;99.90;;;;;;5113605;27;20478;-95
2022/02/19 05:36:36;;;;;;;16.42;3.50;;;4.30;99.90;;;;;;5131496;27;20062;-93
2022/02/19 05:39:05;;;;;;;13.50;2.90;;;4.30;99.90;;;;;;5132407;27;20031;-93
2022/02/19 05:41:31;;;;;;;13.48;2.90;;;4.30;99.90;;;;;;5081155;28;20089;-94
2022/02/19 05:44:00;;;;;;;20.10;4.18;;;4.80;99.90;;;;;;5089311;28;20097;-94
2022/02/19 05:46:31;;;;;;;23.30;4.07;;;4.30;99.90;;;;;;5098632;28;20047;-94
2022/02/19 05:49:17;;;;;;;;;;;4.30;99.90;;;;;;5136107;27;20056;-94
2022/02/19 05:51:50;;;;;;;5.00;0.77;;;4.20;99.90;;;;;;5134389;27;19923;-95
2022/02/19 05:54:16;;;;;;;9.52;2.15;;;4.00;99.90;;;;;;5118585;27;20054;-94
2022/02/19 05:56:42;;;;;;;18.08;4.03;;;3.80;99.90;;;;;;5103737;27;20070;-94
2022/02/19 05:59:09;;;;;;;13.55;2.88;;;3.70;99.90;;;;;;5118416;27;20065;-93
2022/02/19 06:01:41;;;;;;;21.80;4.57;;;3.70;99.90;;;;;;5104361;27;20035;-95
2022/02/19 06:04:13;;;;;;;13.05;1.95;;;3.50;99.90;;;;;;5116682;27;20074;-93
2022/02/19 06:06:51;;;;;;;31.30;5.78;;;3.60;99.90;;;;;;5135152;27;20118;-96
2022/02/19 06:09:22;;;;;;;25.83;4.43;;;3.60;99.90;;;;;;5100731;27;20038;-95
2022/02/19 06:12:08;;;;;;;16.48;3.22;;;3.70;99.90;;;;;;5084059;27;20096;-96
2022/02/19 06:14:38;;;;;;;;;;;3.80;99.90;;;;;;5126343;27;20123;-95
2022/02/19 06:17:05;;;;;;;21.95;4.28;;;3.70;99.90;;;;;;5139150;27;20029;-94
2022/02/19 06:19:33;;;;;;;7.35;1.55;;;3.70;99.90;;;;;;5105548;27;20121;-94
2022/02/19 06:22:02;;;;;;;2.33;0.82;;;3.70;99.90;;;;;;5139321;27;20035;-95
2022/02/19 06:24:31;;;;;;;4.65;0.75;;;3.70;99.90;;;;;;5122074;27;20125;-95
2022/02/19 06:27:05;;;;;;;7.00;1.02;;;3.70;99.90;;;;;;5128889;27;20064;-94
2022/02/19 06:29:49;;;;;;;;;;;;;;;;;;;;;
2022/02/19 06:32:21;;;;;;;3.90;1.30;;;3.70;99.90;;;;;;5121023;27;20591;-94
2022/02/19 06:34:56;;;;;;;6.55;1.45;;;3.80;99.90;;;;;;5119486;27;20091;-95
2022/02/19 06:37:26;;;;;;;8.20;1.30;;;4.00;99.90;;;;;;5105135;27;20042;-93
2022/02/19 06:39:52;;;;;;;4.97;1.13;;;4.20;99.90;;;;;;5135790;27;20123;-95
2022/02/19 06:42:18;;;;;;;6.07;1.58;;;4.20;99.90;;;;;;5108241;27;20490;-94
2022/02/19 06:44:44;;;;;;;22.58;3.47;;;4.40;99.90;;;;;;5116243;27;20039;-93
2022/02/19 06:47:11;;;;;;;14.40;3.15;;;4.30;99.90;;;;;;5121355;27;20046;-93
2022/02/19 06:49:37;;;;;;;14.77;2.70;;;4.80;99.90;;;;;;5103208;28;20099;-94
2022/02/19 06:52:05;;;;;;;7.68;1.20;;;4.60;99.90;;;;;;5084273;28;20058;-93
2022/02/19 06:54:34;;;;;;;8.40;2.15;;;4.70;99.90;;;;;;5097876;28;20048;-94
2022/02/19 06:57:10;;;;;;;6.03;1.83;;;4.70;99.90;;;;;;5068957;28;20056;-94
2022/02/19 06:59:36;;;;;;;5.78;1.48;;;4.80;99.90;;;;;;5085633;28;20048;-93
2022/02/19 07:02:02;;;;;;;7.65;1.98;;;4.70;99.90;;;;;;5061393;28;20055;-93
2022/02/19 07:04:28;;;;;;;5.13;1.25;;;4.70;99.90;;;;;;5079978;28;20131;-94
2022/02/19 07:06:57;;;;;;;32.72;4.68;;;4.70;99.90;;;;;;5078866;28;20474;-94
2022/02/19 07:09:25;;;;;;;4.32;1.15;;;4.70;99.90;;;;;;5079672;28;20115;-93
2022/02/19 07:11:50;;;;;;;9.65;2.90;;;4.70;99.90;;;;;;5054206;28;20064;-93
2022/02/19 07:14:16;;;;;;;9.15;2.17;;;4.70;99.90;;;;;;5064907;28;20134;-93
2022/02/19 07:16:42;;;;;;;29.63;4.80;;;4.80;99.90;;;;;;5079362;28;20154;-93
2022/02/19 07:19:09;;;;;;;34.13;7.13;;;4.80;99.90;;;;;;5076834;28;20044;-95
2022/02/19 07:21:40;;;;;;;21.50;3.80;;;4.70;99.90;;;;;;5091919;28;20496;-93
2022/02/19 07:25:08;;;;;;;;;;;;;;;;;;;;;
2022/02/19 07:47:57;;;;;;;;;;;;;;;;;;;;;
2022/02/19 08:01:14;;;;;;;3.55;1.25;;;4.40;99.90;;;;;;4828640;29;20203;-94
2022/02/19 08:04:06;;;;;;;4.20;1.23;;;4.50;99.90;;;;;;4843298;29;20094;-94
2022/02/19 08:07:22;;;;;;;5.90;1.80;;;4.50;99.90;;;;;;4860207;29;20056;-94
2022/02/19 08:10:29;;;;;;;4.13;1.13;;;4.30;99.90;;;;;;4897929;29;20522;-95
2022/02/19 08:13:19;;;;;;;2.15;1.00;;;4.20;99.90;;;;;;4939999;28;20055;-96
2022/02/19 08:16:10;;;;;;;5.85;0.77;;;4.30;99.90;;;;;;4965108;28;20081;-94
2022/02/19 08:18:42;;;;;;;9.02;0.95;;;4.70;99.90;;;;;;4936177;28;20050;-94
2022/02/19 08:21:51;;;;;;;6.65;1.40;;;4.50;99.90;;;;;;5028046;28;20052;-95
2022/02/19 08:24:45;;;;;;;8.05;1.52;;;4.70;99.90;;;;;;5016413;28;20037;-96
2022/02/19 08:27:39;;;;;;;;;;;;;;;;;;;;;
2022/02/19 08:30:11;;;;;;;5.32;1.90;;;5.10;99.90;;;;;;5037584;28;20047;-96
2022/02/19 08:32:57;;;;;;;2.50;0.65;;;5.20;99.90;;;;;;5084477;28;20055;-95
2022/02/19 08:35:45;;;;;;;5.47;0.93;;;5.20;99.90;;;;;;5112264;28;20059;-94
2022/02/19 08:42:44;;;;;;;11.07;1.55;;;5.20;99.90;;;;;;5097701;28;20055;-96
2022/02/19 08:45:55;;;;;;;10.30;1.73;;;5.20;99.90;;;;;;5080775;28;20478;-96
2022/02/19 08:48:40;;;;;;;4.95;1.42;;;5.00;99.90;;;;;;5091900;28;20055;-96
2022/02/19 08:51:09;;;;;;;6.43;1.50;;;4.70;99.90;;;;;;5080678;27;20448;-94
2022/02/19 08:53:47;;;;;;;3.80;1.02;;;4.60;99.90;;;;;;5094701;27;20045;-95
2022/02/19 08:56:33;;;;;;;4.75;1.13;;;4.50;99.90;;;;;;5113844;27;20079;-94
2022/02/19 08:58:59;;;;;;;5.60;1.35;;;4.60;99.90;;;;;;5119941;27;20112;-94
2022/02/19 09:01:40;;;;;;;6.03;1.30;;;4.80;99.90;;;;;;5090413;28;20097;-94
2022/02/19 09:04:30;;;;;;;8.70;1.38;;;5.00;99.90;;;;;;5107824;27;20080;-95
2022/02/19 09:07:22;;;;;;;3.88;1.25;;;5.10;99.90;;;;;;5112519;27;20036;-96
2022/02/19 09:10:32;;;;;;;4.22;1.65;;;5.20;99.90;;;;;;5124558;27;20464;-94
2022/02/19 09:13:04;;;;;;;5.50;1.83;;;5.70;99.90;;;;;;5086521;27;20126;-94
2022/02/19 09:15:38;;;;;;;12.07;1.73;;;5.50;99.90;;;;;;5060365;28;20052;-95
2022/02/19 09:20:51;;;;;;;8.88;1.45;;;5.90;99.90;;;;;;5091662;27;20055;-94
2022/02/19 09:23:28;;;;;;;8.35;0.90;;;5.20;99.90;;;;;;5089320;28;20122;-95
2022/02/19 09:25:56;;;;;;;8.07;1.70;;;5.00;99.90;;;;;;5085885;27;20927;-94
2022/02/19 09:28:33;;;;;;;3.83;1.33;;;5.00;99.90;;;;;;5107234;27;20499;-95
2022/02/19 09:31:21;;;;;;;4.78;1.33;;;5.10;99.90;;;;;;5080977;27;20050;-93
2022/02/19 09:34:23;;;;;;;6.00;0.98;;;5.10;99.90;;;;;;5115544;27;20055;-93
2022/02/19 09:37:34;;;;;;;2.33;0.95;;;5.10;99.90;;;;;;5109167;27;20047;-95
2022/02/19 09:41:08;;;;;;;;;;;;;;;;;;;;;
2022/02/19 09:44:48;;;;;;;3.08;1.10;;;5.60;99.90;;;;;;5109703;27;20047;-94
2022/02/19 09:48:13;;;;;;;10.33;1.03;;;5.70;99.90;;;;;;5130054;27;20406;-96
2022/02/19 09:51:27;;;;;;;6.80;1.05;;;5.90;99.90;;;;;;5123809;28;20771;-94
2022/02/19 09:53:57;;;;;;;10.52;1.92;;;6.10;99.90;;;;;;5101004;28;20047;-95
2022/02/19 09:56:51;;;;;;;9.32;1.38;;;6.00;99.90;;;;;;5077666;28;20104;-95
2022/02/19 09:59:59;;;;;;;12.65;1.15;;;6.10;99.90;;;;;;5121652;28;20101;-95
2022/02/19 10:02:40;;;;;;;8.10;1.75;;;6.20;99.90;;;;;;5033307;28;20549;-92
2022/02/19 10:05:13;;;;;;;9.60;2.10;;;6.30;99.90;;;;;;5074701;28;20169;-95
2022/02/19 10:07:41;;;;;;;20.25;3.35;;;6.30;99.90;;;;;;5078154;28;20613;-94
2022/02/19 10:10:07;;;;;;;9.20;1.80;;;6.40;99.90;;;;;;5081281;28;20043;-95
2022/02/19 10:12:49;;;;;;;10.05;1.77;;;6.40;99.90;;;;;;5084194;28;20056;-94
2022/02/19 10:15:15;;;;;;;6.40;1.73;;;6.40;99.90;;;;;;5092690;28;20406;-94
2022/02/19 10:17:45;;;;;;;6.65;1.40;;;6.40;99.90;;;;;;5067736;28;20059;-93
2022/02/19 10:24:17;;;;;;;9.23;1.75;;;6.40;99.90;;;;;;5029483;28;20045;-95
2022/02/19 10:27:13;;;;;;;13.27;1.95;;;6.20;99.90;;;;;;5008651;28;20200;-95
2022/02/19 10:30:22;;;;;;;18.02;3.00;;;6.10;99.90;;;;;;4963956;28;20126;-96
2022/02/19 10:34:02;;;;;;;10.98;2.55;;;6.00;99.90;;;;;;4967038;28;20058;-95
2022/02/19 10:37:58;;;;;;;;;;;;;;;;;;;;;
2022/02/19 10:41:49;;;;;;;8.13;2.15;;;6.20;99.90;;;;;;4939761;29;20051;-95
2022/02/19 11:04:07;;;;;;;11.93;2.60;;;6.10;99.90;;;;;;4711532;30;20529;-96
2022/02/19 11:07:21;;;;;;;17.55;3.30;;;6.20;99.90;;;;;;4778485;29;20085;-95
2022/02/19 11:10:15;;;;;;;6.13;1.33;;;6.40;99.90;;;;;;4836648;29;20060;-95
2022/02/19 11:13:31;;;;;;;6.63;1.90;;;6.60;99.90;;;;;;4839555;29;20061;-94
2022/02/19 11:17:02;;;;;;;28.95;3.40;;;6.60;99.90;;;;;;4993415;28;20051;-96
2022/02/19 11:21:01;;;;;;;4.32;1.50;;;6.50;99.90;;;;;;5080905;28;20051;-94
2022/02/19 11:24:06;;;;;;;4.18;0.95;;;6.50;99.90;;;;;;5089402;28;20039;-95
2022/02/19 11:26:36;;;;;;;4.70;1.20;;;6.70;99.90;;;;;;5051724;28;20118;-94
2022/02/19 11:29:16;;;;;;;10.32;1.23;;;6.60;99.90;;;;;;5042256;28;20141;-94
2022/02/19 11:32:41;;;;;;;3.70;1.30;;;6.40;99.90;;;;;;4999519;28;20057;-95
2022/02/19 11:50:40;;;;;;;;;;;;;;;;;;;;;
2022/02/19 12:16:01;;;;;;;7.22;1.58;;;6.50;99.90;;;;;;5227846;22;20100;-52
2022/02/19 12:18:46;;;;;;;8.27;1.48;;;6.50;99.90;;;;;;5107576;28;20078;-54
2022/02/19 12:21:32;;;;;;;4.65;1.75;;;6.50;99.90;;;;;;5072037;28;20052;-60
2022/02/19 12:24:21;;;;;;;3.97;1.13;;;6.40;99.90;;;;;;5089739;28;20404;-59
2022/02/19 12:29:26;;;;;;;6.93;1.10;;;6.60;99.90;;;;;;5107923;28;20829;-58
2022/02/19 12:32:18;;;;;;;8.50;1.48;;;6.70;99.90;;;;;;5089065;28;20071;-53
2022/02/19 12:34:56;;;;;;;8.88;1.35;;;6.90;99.90;;;;;;5074582;28;20051;-56
2022/02/19 12:37:22;;;;;;;14.80;1.65;;;7.20;99.90;;;;;;5106838;28;20134;-57
2022/02/19 12:39:49;;;;;;;7.72;1.05;;;7.20;99.90;;;;;;5089603;28;20047;-55
2022/02/19 12:42:21;;;;;;;3.05;0.90;;;7.20;99.90;;;;;;5082834;28;20051;-57
2022/02/19 12:44:57;;;;;;;14.43;2.40;;;7.20;99.90;;;;;;5085300;28;20112;-48
2022/02/19 12:47:23;;;;;;;6.25;1.00;;;7.00;99.90;;;;;;5089807;28;20123;-59
2022/02/19 12:49:50;;;;;;;1.92;0.43;;;7.00;99.90;;;;;;5088417;28;20134;-64
2022/02/19 12:52:16;;;;;;;6.22;2.10;;;7.00;99.90;;;;;;5086618;28;20044;-57
2022/02/19 12:54:43;;;;;;;4.30;1.05;;;7.00;99.90;;;;;;5082590;28;20662;-63
2022/02/19 12:57:19;;;;;;;9.82;1.15;;;7.20;99.90;;;;;;5107731;28;20043;-58
2022/02/19 12:59:47;;;;;;;11.63;2.28;;;7.50;99.90;;;;;;5107819;28;20043;-60
2022/02/19 13:02:17;;;;;;;14.82;1.55;;;7.60;99.90;;;;;;5067033;28;20075;-52
2022/02/19 13:04:44;;;;;;;6.00;1.38;;;7.80;99.90;;;;;;5081658;28;20079;-59
2022/02/19 13:07:19;;;;;;;13.38;1.40;;;8.00;99.90;;;;;;5088108;28;20035;-61
2022/02/19 13:09:49;;;;;;;8.05;1.20;;;7.80;99.90;;;;;;5107213;28;20562;-65
2022/02/19 13:12:15;;;;;;;7.20;1.02;;;7.90;99.90;;;;;;5086633;28;20139;-48
2022/02/19 13:14:52;;;;;;;6.70;1.40;;;8.00;99.90;;;;;;5106796;28;20062;-61
2022/02/19 13:17:18;;;;;;;8.40;1.65;;;7.90;99.90;;;;;;5085960;28;20070;-66
2022/02/19 13:19:46;;;;;;;7.15;0.80;;;7.90;99.90;;;;;;5084280;28;20052;-52
2022/02/19 13:22:23;;;;;;;10.32;1.70;;;7.90;99.90;;;;;;5078566;28;20505;-52
2022/02/19 13:24:51;;;;;;;6.53;0.80;;;7.80;99.90;;;;;;5054783;28;20425;-54
2022/02/19 13:27:25;;;;;;;2.63;0.50;;;7.60;99.90;;;;;;5077955;28;20086;-53
2022/02/19 13:29:56;;;;;;;13.23;1.55;;;7.40;99.90;;;;;;5088998;28;20075;-62
2022/02/19 13:32:23;;;;;;;11.98;1.02;;;7.20;99.90;;;;;;5106223;28;20566;-57
2022/02/19 13:34:50;;;;;;;2.20;0.52;;;7.10;99.90;;;;;;5107347;28;20078;-53
2022/02/19 13:37:16;;;;;;;16.92;2.35;;;7.20;99.90;;;;;;5106265;28;20059;-58
2022/02/19 13:39:43;;;;;;;6.03;0.70;;;7.20;99.90;;;;;;5103924;28;20038;-55
2022/02/19 13:42:10;;;;;;;1.05;0.60;;;7.20;99.90;;;;;;5095558;28;20047;-58
2022/02/19 13:44:50;;;;;;;5.80;1.42;;;7.20;99.90;;;;;;5088529;28;20042;-53
2022/02/19 13:47:17;;;;;;;3.05;0.80;;;7.20;99.90;;;;;;5099451;28;20036;-56
2022/02/19 13:49:48;;;;;;;6.85;1.60;;;7.20;99.90;;;;;;5079637;28;20048;-56
2022/02/19 13:52:25;;;;;;;10.75;1.00;;;7.20;99.90;;;;;;5107531;28;20420;-58
2022/02/19 13:54:52;;;;;;;4.47;1.70;;;7.20;99.90;;;;;;5085327;28;20059;-50
2022/02/19 13:57:21;;;;;;;6.85;1.30;;;7.10;99.90;;;;;;5072006;28;20042;-60
2022/02/19 14:00:12;;;;;;;6.15;1.42;;;7.10;99.90;;;;;;5075051;28;20066;-54
2022/02/19 14:02:43;;;;;;;7.88;1.58;;;7.00;99.90;;;;;;5056229;28;20068;-61
2022/02/19 14:05:11;;;;;;;9.48;1.08;;;7.10;99.90;;;;;;5087329;28;20046;-62
2022/02/19 14:07:58;;;;;;;9.05;1.08;;;7.00;99.30;;;;;;5105505;28;20580;-53
2022/02/19 14:10:26;;;;;;;10.27;1.23;;;7.00;99.90;;;;;;5102347;28;20031;-62
2022/02/19 14:12:53;;;;;;;1.50;0.70;;;6.90;99.90;;;;;;5076113;28;20087;-57
2022/02/19 14:15:32;;;;;;;8.38;0.63;;;6.80;99.90;;;;;;5071261;28;20048;-58
2022/02/19 14:18:08;;;;;;;3.17;0.93;;;6.80;99.90;;;;;;5084006;28;20047;-56
2022/02/19 14:20:37;;;;;;;3.42;0.75;;;6.80;99.90;;;;;;5084282;28;20568;-52
2022/02/19 14:23:18;;;;;;;9.63;1.17;;;6.80;99.90;;;;;;5080506;28;20441;-51
2022/02/19 14:25:47;;;;;;;3.90;0.95;;;6.80;99.90;;;;;;5077544;28;20105;-52
2022/02/19 14:28:16;;;;;;;3.35;0.60;;;6.80;99.90;;;;;;5082668;28;20040;-61
2022/02/19 14:30:44;;;;;;;10.52;1.25;;;6.80;99.90;;;;;;5085744;28;20117;-58
2022/02/19 14:33:11;;;;;;;7.25;1.05;;;6.90;99.90;;;;;;5087445;28;20044;-57
2022/02/19 14:35:38;;;;;;;12.55;1.67;;;6.90;99.90;;;;;;5087477;28;20036;-58
2022/02/19 14:38:27;;;;;;;15.43;2.13;;;6.90;99.90;;;;;;5087670;28;20040;-51
2022/02/19 14:40:55;;;;;;;3.50;0.93;;;6.90;99.90;;;;;;5069839;28;20040;-57
2022/02/19 14:43:22;;;;;;;8.30;1.35;;;7.00;99.90;;;;;;5070608;28;20097;-64
2022/02/19 14:45:49;;;;;;;4.60;1.33;;;7.00;99.90;;;;;;5088135;28;20040;-56
2022/02/19 14:48:16;;;;;;;7.75;2.15;;;7.00;99.90;;;;;;5070464;28;20079;-55
2022/02/19 14:50:44;;;;;;;3.28;0.80;;;7.00;99.90;;;;;;5086684;28;20044;-52
2022/02/19 14:53:10;;;;;;;6.60;1.13;;;6.90;99.90;;;;;;5088556;28;20079;-61
2022/02/19 14:55:36;;;;;;;13.55;1.83;;;7.00;99.90;;;;;;5086799;28;20048;-59
2022/02/19 14:58:04;;;;;;;10.52;1.92;;;7.00;99.90;;;;;;5086915;28;20048;-56
2022/02/19 15:00:31;;;;;;;10.65;1.15;;;6.90;99.90;;;;;;5089130;28;20048;-66
2022/02/19 15:02:57;;;;;;;6.40;1.45;;;6.90;99.90;;;;;;5085631;28;20040;-59
2022/02/19 15:05:23;;;;;;;3.88;0.65;;;6.90;99.90;;;;;;5087624;28;20082;-56
2022/02/19 15:07:49;;;;;;;11.07;1.45;;;6.90;99.90;;;;;;5087516;28;20075;-56
2022/02/19 15:10:15;;;;;;;4.07;0.73;;;6.90;99.90;;;;;;5088384;28;20410;-55
2022/02/19 15:12:43;;;;;;;11.25;1.73;;;6.80;99.90;;;;;;5086224;28;20074;-51
2022/02/19 15:15:13;;;;;;;15.10;2.03;;;6.80;99.90;;;;;;5083211;28;20055;-63
2022/02/19 15:17:39;;;;;;;;;;;6.70;99.90;;;;;;5102262;28;20083;-57
2022/02/19 15:20:06;;;;;;;8.15;1.30;;;6.70;99.90;;;;;;5090226;28;19923;-60
2022/02/19 15:22:33;;;;;;;7.55;1.33;;;6.70;99.90;;;;;;5108285;28;20040;-56
2022/02/19 15:24:59;;;;;;;10.45;1.55;;;6.70;99.90;;;;;;5107986;28;20433;-53
2022/02/19 15:27:25;;;;;;;10.93;1.35;;;6.70;99.90;;;;;;5073338;28;20044;-55
2022/02/19 15:29:51;;;;;;;18.92;2.17;;;6.70;99.90;;;;;;5086095;28;20043;-59
2022/02/19 15:32:18;;;;;;;7.00;1.48;;;6.70;99.90;;;;;;5072741;28;20477;-60